SBKG

Details ICAO SBKG (CPV)
Name PRESIDENTE JOAO SUASSUNA
Region Brazil
Timezone America/Fortaleza (UTC-3.0)
Plans Departing 15
Arriving 12
Stats Elevation 1,646 ft / 502 m (AMSL)
Location -7.269916° -35.896364°
Runways 1
Magnetic Variation 21.923° W
Sunrise 2017-12-14 08:03:30 UTC / 2017-12-14 05:03:30 Local
Sunset 2017-12-14 20:35:56 UTC / 2017-12-14 17:35:56 Local
Advertisement - Login to hide

Runways

ID Width Length Bearing (true) Bearing (mag) Surface Threshold Offset Overrun Length
15 138 ft / 42 m 5,262 ft / 1,604 m 125.55° 147.47° Asphalt 0 ft / 0 m 170 ft / 52 m
33 138 ft / 42 m 5,262 ft / 1,604 m 305.54° 327.46° Asphalt 0 ft / 0 m 200 ft / 61 m

Map

Weather


0- 5 10 15 20 25 30 35+ Temperature / ° C

Clouds and Precipitation
Forecast for 2017-12-14 06:00 UTC. Updated an hour ago

Ground ~20,000 ft ~40,000 ft Winds

METAR

SBKG 140300Z 10010KT 9999 SCT011 22/20 Q1017

TAF

TAF SBKG 132200Z 1400/1412 10010KT 9999 SCT012 TN22/1408Z TX25/1411Z BECMG 1401/1403 BKN008 BECMG 1411/1412 BKN015 RMK PEU

Frequencies

Tower 125.90 MHz CAMPINA GRANDE RDO
Warning: Do not use this data for real-world aviation or navigation. No guarantee of current accuracy is given.